sensor_id;sensor_type;location;lat;lon;timestamp;pressure;altitude;pressure_sealevel;temperature;humidity
21433;BME280;18592;49.708;10.900;2023-06-14T00:00:11;98253.47;;;22.21;30.74
21433;BME280;18592;49.708;10.900;2023-06-14T00:02:12;98252.19;;;22.19;30.63
21433;BME280;18592;49.708;10.900;2023-06-14T00:04:14;98256.44;;;22.16;30.79
21433;BME280;18592;49.708;10.900;2023-06-14T00:06:18;98250.72;;;22.12;30.87
21433;BME280;18592;49.708;10.900;2023-06-14T00:08:21;98251.38;;;22.09;31.00
21433;BME280;18592;49.708;10.900;2023-06-14T00:10:24;98260.72;;;22.05;31.06
21433;BME280;18592;49.708;10.900;2023-06-14T00:12:26;98255.84;;;22.02;30.97
21433;BME280;18592;49.708;10.900;2023-06-14T00:14:28;98256.84;;;21.97;30.97
21433;BME280;18592;49.708;10.900;2023-06-14T00:16:31;98254.72;;;21.94;31.15
21433;BME280;18592;49.708;10.900;2023-06-14T00:18:35;98255.72;;;21.90;31.26
21433;BME280;18592;49.708;10.900;2023-06-14T00:20:36;98248.88;;;21.87;31.37
21433;BME280;18592;49.708;10.900;2023-06-14T00:22:38;98244.28;;;21.83;31.22
21433;BME280;18592;49.708;10.900;2023-06-14T00:24:40;98249.34;;;21.81;31.28
21433;BME280;18592;49.708;10.900;2023-06-14T00:26:42;98239.25;;;21.76;30.96
21433;BME280;18592;49.708;10.900;2023-06-14T00:28:45;98234.69;;;21.72;31.23
21433;BME280;18592;49.708;10.900;2023-06-14T00:31:12;98235.69;;;21.67;31.28
21433;BME280;18592;49.708;10.900;2023-06-14T00:33:22;98237.47;;;21.63;31.26
21433;BME280;18592;49.708;10.900;2023-06-14T00:35:24;98239.78;;;21.61;31.09
21433;BME280;18592;49.708;10.900;2023-06-14T00:37:26;98235.22;;;21.57;31.11
21433;BME280;18592;49.708;10.900;2023-06-14T00:39:27;98230.31;;;21.53;31.44
21433;BME280;18592;49.708;10.900;2023-06-14T00:41:32;98229.03;;;21.51;31.38
21433;BME280;18592;49.708;10.900;2023-06-14T00:43:34;98236.06;;;21.48;31.04
21433;BME280;18592;49.708;10.900;2023-06-14T00:45:36;98239.16;;;21.47;31.36
21433;BME280;18592;49.708;10.900;2023-06-14T00:47:41;98230.69;;;21.43;31.70
21433;BME280;18592;49.708;10.900;2023-06-14T00:49:47;98234.94;;;21.41;31.49
21433;BME280;18592;49.708;10.900;2023-06-14T00:51:49;98239.19;;;21.38;31.68
21433;BME280;18592;49.708;10.900;2023-06-14T00:53:53;98237.06;;;21.35;31.66
21433;BME280;18592;49.708;10.900;2023-06-14T00:55:54;98232.97;;;21.33;31.83
21433;BME280;18592;49.708;10.900;2023-06-14T00:57:56;98239.22;;;21.30;31.92
21433;BME280;18592;49.708;10.900;2023-06-14T00:59:58;98235.44;;;21.26;32.02
21433;BME280;18592;49.708;10.900;2023-06-14T01:02:00;98234.97;;;21.24;31.80
21433;BME280;18592;49.708;10.900;2023-06-14T01:04:02;98243.94;;;21.21;31.75
21433;BME280;18592;49.708;10.900;2023-06-14T01:08:31;98237.59;;;21.12;31.83
21433;BME280;18592;49.708;10.900;2023-06-14T01:12:50;98243.56;;;21.05;31.88
21433;BME280;18592;49.708;10.900;2023-06-14T01:14:54;98231.19;;;21.03;32.07
21433;BME280;18592;49.708;10.900;2023-06-14T01:16:58;98242.97;;;21.00;31.73
21433;BME280;18592;49.708;10.900;2023-06-14T01:19:02;98234.47;;;20.96;32.13
21433;BME280;18592;49.708;10.900;2023-06-14T01:21:06;98232.34;;;20.93;31.83
21433;BME280;18592;49.708;10.900;2023-06-14T01:23:11;98223.06;;;20.89;32.13
21433;BME280;18592;49.708;10.900;2023-06-14T01:25:13;98230.38;;;20.85;31.99
21433;BME280;18592;49.708;10.900;2023-06-14T01:27:15;98234.94;;;20.81;31.98
21433;BME280;18592;49.708;10.900;2023-06-14T01:29:17;98231.69;;;20.79;32.19
21433;BME280;18592;49.708;10.900;2023-06-14T01:31:23;98233.47;;;20.75;32.19
21433;BME280;18592;49.708;10.900;2023-06-14T01:33:28;98240.81;;;20.71;32.17
21433;BME280;18592;49.708;10.900;2023-06-14T01:35:32;98238.69;;;20.68;32.13
21433;BME280;18592;49.708;10.900;2023-06-14T01:37:36;98241.63;;;20.63;32.30
21433;BME280;18592;49.708;10.900;2023-06-14T01:39:38;98239.47;;;20.60;32.39
21433;BME280;18592;49.708;10.900;2023-06-14T01:41:41;98243.22;;;20.55;32.42
21433;BME280;18592;49.708;10.900;2023-06-14T01:43:58;98245.81;;;20.52;32.55
21433;BME280;18592;49.708;10.900;2023-06-14T01:46:02;98239.31;;;20.48;32.51
21433;BME280;18592;49.708;10.900;2023-06-14T01:48:04;98238.00;;;20.45;32.37
21433;BME280;18592;49.708;10.900;2023-06-14T01:50:08;98234.25;;;20.41;32.37
21433;BME280;18592;49.708;10.900;2023-06-14T01:52:13;98234.06;;;20.38;32.89
21433;BME280;18592;49.708;10.900;2023-06-14T01:54:17;98240.25;;;20.35;32.62
21433;BME280;18592;49.708;10.900;2023-06-14T01:56:21;98254.72;;;20.32;32.99
21433;BME280;18592;49.708;10.900;2023-06-14T01:58:23;98246.28;;;20.28;32.79
21433;BME280;18592;49.708;10.900;2023-06-14T02:00:26;98254.41;;;20.24;32.83
21433;BME280;18592;49.708;10.900;2023-06-14T02:02:29;98246.69;;;20.21;33.00
21433;BME280;18592;49.708;10.900;2023-06-14T02:04:34;98252.91;;;20.18;33.31
21433;BME280;18592;49.708;10.900;2023-06-14T02:06:37;98257.13;;;20.16;33.00
21433;BME280;18592;49.708;10.900;2023-06-14T02:08:38;98260.81;;;20.11;33.25
21433;BME280;18592;49.708;10.900;2023-06-14T02:10:42;98261.50;;;20.08;33.57
21433;BME280;18592;49.708;10.900;2023-06-14T02:12:48;98265.72;;;20.06;33.48
21433;BME280;18592;49.708;10.900;2023-06-14T02:14:49;98255.28;;;20.03;33.66
21433;BME280;18592;49.708;10.900;2023-06-14T02:16:52;98250.72;;;19.98;33.62
21433;BME280;18592;49.708;10.900;2023-06-14T02:18:55;98254.09;;;19.95;33.88
21433;BME280;18592;49.708;10.900;2023-06-14T02:20:59;98252.31;;;19.91;33.61
21433;BME280;18592;49.708;10.900;2023-06-14T02:23:04;98258.13;;;19.89;33.59
21433;BME280;18592;49.708;10.900;2023-06-14T02:25:08;98270.16;;;19.85;33.63
21433;BME280;18592;49.708;10.900;2023-06-14T02:27:14;98261.69;;;19.81;33.93
21433;BME280;18592;49.708;10.900;2023-06-14T02:29:23;98258.75;;;19.78;33.79
21433;BME280;18592;49.708;10.900;2023-06-14T02:31:25;98264.91;;;19.75;33.69
21433;BME280;18592;49.708;10.900;2023-06-14T02:33:27;98262.78;;;19.72;33.83
21433;BME280;18592;49.708;10.900;2023-06-14T02:35:41;98264.56;;;19.68;33.57
21433;BME280;18592;49.708;10.900;2023-06-14T02:37:43;98265.19;;;19.64;33.78
21433;BME280;18592;49.708;10.900;2023-06-14T02:39:45;98270.53;;;19.61;34.09
21433;BME280;18592;49.708;10.900;2023-06-14T02:41:47;98266.44;;;19.58;34.02
21433;BME280;18592;49.708;10.900;2023-06-14T02:43:49;98269.88;;;19.55;34.25
21433;BME280;18592;49.708;10.900;2023-06-14T02:45:50;98274.38;;;19.51;34.21
21433;BME280;18592;49.708;10.900;2023-06-14T02:47:52;98278.59;;;19.49;34.47
21433;BME280;18592;49.708;10.900;2023-06-14T02:49:54;98279.53;;;19.44;34.22
21433;BME280;18592;49.708;10.900;2023-06-14T02:51:56;98285.69;;;19.41;34.09
21433;BME280;18592;49.708;10.900;2023-06-14T02:54:12;98281.41;;;19.35;34.51
21433;BME280;18592;49.708;10.900;2023-06-14T02:56:14;98287.56;;;19.32;34.37
21433;BME280;18592;49.708;10.900;2023-06-14T02:58:19;98290.13;;;19.29;34.72
21433;BME280;18592;49.708;10.900;2023-06-14T03:00:21;98282.44;;;19.26;34.68
21433;BME280;18592;49.708;10.900;2023-06-14T03:02:23;98290.56;;;19.22;34.48
21433;BME280;18592;49.708;10.900;2023-06-14T03:04:25;98289.25;;;19.20;34.93
21433;BME280;18592;49.708;10.900;2023-06-14T03:06:28;98289.53;;;19.18;34.75
21433;BME280;18592;49.708;10.900;2023-06-14T03:08:33;98293.75;;;19.16;34.80
21433;BME280;18592;49.708;10.900;2023-06-14T03:10:46;98293.59;;;19.12;35.09
21433;BME280;18592;49.708;10.900;2023-06-14T03:12:48;98299.22;;;19.07;34.89
21433;BME280;18592;49.708;10.900;2023-06-14T03:14:52;98298.41;;;19.07;35.09
21433;BME280;18592;49.708;10.900;2023-06-14T03:16:56;98293.81;;;19.02;34.90
21433;BME280;18592;49.708;10.900;2023-06-14T03:18:58;98301.59;;;19.00;35.23
21433;BME280;18592;49.708;10.900;2023-06-14T03:21:04;98302.53;;;18.95;34.93
21433;BME280;18592;49.708;10.900;2023-06-14T03:23:15;98298.44;;;18.93;35.03
21433;BME280;18592;49.708;10.900;2023-06-14T03:25:16;98308.16;;;18.90;35.06
21433;BME280;18592;49.708;10.900;2023-06-14T03:27:21;98305.22;;;18.87;35.17
21433;BME280;18592;49.708;10.900;2023-06-14T03:29:23;98305.03;;;18.83;35.17
21433;BME280;18592;49.708;10.900;2023-06-14T03:31:24;98310.34;;;18.80;35.05
21433;BME280;18592;49.708;10.900;2023-06-14T03:33:28;98309.84;;;18.78;35.30
21433;BME280;18592;49.708;10.900;2023-06-14T03:35:32;98300.53;;;18.74;35.37
21433;BME280;18592;49.708;10.900;2023-06-14T03:37:38;98302.81;;;18.72;35.28
21433;BME280;18592;49.708;10.900;2023-06-14T03:39:40;98302.28;;;18.70;35.46
21433;BME280;18592;49.708;10.900;2023-06-14T03:41:51;98304.84;;;18.66;35.44
21433;BME280;18592;49.708;10.900;2023-06-14T03:43:53;98305.16;;;18.65;35.48
21433;BME280;18592;49.708;10.900;2023-06-14T03:45:57;98315.69;;;18.63;35.50
21433;BME280;18592;49.708;10.900;2023-06-14T03:48:06;98321.81;;;18.60;35.23
21433;BME280;18592;49.708;10.900;2023-06-14T03:50:10;98325.72;;;18.59;35.45
21433;BME280;18592;49.708;10.900;2023-06-14T03:52:12;98327.16;;;18.56;35.48
21433;BME280;18592;49.708;10.900;2023-06-14T03:54:17;98332.97;;;18.55;35.75
21433;BME280;18592;49.708;10.900;2023-06-14T03:56:27;98332.78;;;18.51;35.50
21433;BME280;18592;49.708;10.900;2023-06-14T03:58:29;98333.91;;;18.50;35.68
21433;BME280;18592;49.708;10.900;2023-06-14T04:00:34;98338.59;;;18.50;35.46
21433;BME280;18592;49.708;10.900;2023-06-14T04:02:37;98343.63;;;18.48;35.64
21433;BME280;18592;49.708;10.900;2023-06-14T04:04:39;98344.75;;;18.47;35.52
21433;BME280;18592;49.708;10.900;2023-06-14T04:06:41;98344.75;;;18.47;35.62
21433;BME280;18592;49.708;10.900;2023-06-14T04:08:46;98349.72;;;18.45;35.74
21433;BME280;18592;49.708;10.900;2023-06-14T04:10:49;98349.22;;;18.42;35.86
21433;BME280;18592;49.708;10.900;2023-06-14T04:12:55;98349.53;;;18.41;35.69
21433;BME280;18592;49.708;10.900;2023-06-14T04:15:11;98350.66;;;18.40;35.83
21433;BME280;18592;49.708;10.900;2023-06-14T04:17:23;98359.25;;;18.38;36.01
21433;BME280;18592;49.708;10.900;2023-06-14T04:19:24;98353.22;;;18.36;35.58
21433;BME280;18592;49.708;10.900;2023-06-14T04:21:28;98349.63;;;18.36;35.88
21433;BME280;18592;49.708;10.900;2023-06-14T04:23:33;98359.84;;;18.35;35.79
21433;BME280;18592;49.708;10.900;2023-06-14T04:25:36;98350.75;;;18.35;35.84
21433;BME280;18592;49.708;10.900;2023-06-14T04:27:38;98356.25;;;18.35;35.75
21433;BME280;18592;49.708;10.900;2023-06-14T04:29:40;98360.66;;;18.36;35.77
21433;BME280;18592;49.708;10.900;2023-06-14T04:31:46;98359.03;;;18.35;35.63
21433;BME280;18592;49.708;10.900;2023-06-14T04:33:51;98359.84;;;18.35;35.60
21433;BME280;18592;49.708;10.900;2023-06-14T04:35:57;98364.25;;;18.36;35.78
21433;BME280;18592;49.708;10.900;2023-06-14T04:37:59;98372.22;;;18.38;35.85
21433;BME280;18592;49.708;10.900;2023-06-14T04:40:03;98364.75;;;18.38;35.80
21433;BME280;18592;49.708;10.900;2023-06-14T04:42:13;98374.97;;;18.38;35.94
21433;BME280;18592;49.708;10.900;2023-06-14T04:44:23;98368.03;;;18.40;35.85
21433;BME280;18592;49.708;10.900;2023-06-14T04:46:32;98376.00;;;18.42;35.92
21433;BME280;18592;49.708;10.900;2023-06-14T04:48:40;98372.13;;;18.43;36.05
21433;BME280;18592;49.708;10.900;2023-06-14T04:50:45;98377.88;;;18.47;36.23
21433;BME280;18592;49.708;10.900;2023-06-14T04:52:50;98365.69;;;18.48;36.29
21433;BME280;18592;49.708;10.900;2023-06-14T04:55:03;98380.31;;;18.48;36.38
21433;BME280;18592;49.708;10.900;2023-06-14T04:57:14;98380.00;;;18.50;36.12
21433;BME280;18592;49.708;10.900;2023-06-14T04:59:23;98381.66;;;18.51;36.24
21433;BME280;18592;49.708;10.900;2023-06-14T05:01:25;98373.06;;;18.52;36.23
21433;BME280;18592;49.708;10.900;2023-06-14T05:03:27;98375.53;;;18.54;36.11
21433;BME280;18592;49.708;10.900;2023-06-14T05:05:45;98376.03;;;18.56;36.13
21433;BME280;18592;49.708;10.900;2023-06-14T05:07:51;98376.53;;;18.58;36.03
21433;BME280;18592;49.708;10.900;2023-06-14T05:09:53;98379.81;;;18.60;36.26
21433;BME280;18592;49.708;10.900;2023-06-14T05:11:55;98375.94;;;18.61;36.14
21433;BME280;18592;49.708;10.900;2023-06-14T05:13:57;98371.72;;;18.63;36.01
21433;BME280;18592;49.708;10.900;2023-06-14T05:16:03;98376.66;;;18.66;36.03
21433;BME280;18592;49.708;10.900;2023-06-14T05:18:07;98380.75;;;18.69;36.06
21433;BME280;18592;49.708;10.900;2023-06-14T05:20:09;98382.88;;;18.72;36.76
21433;BME280;18592;49.708;10.900;2023-06-14T05:22:12;98380.63;;;18.74;36.97
21433;BME280;18592;49.708;10.900;2023-06-14T05:24:14;98380.31;;;18.75;37.68
21433;BME280;18592;49.708;10.900;2023-06-14T05:26:21;98379.91;;;18.82;37.27
21433;BME280;18592;49.708;10.900;2023-06-14T05:28:25;98372.03;;;18.89;37.63
21433;BME280;18592;49.708;10.900;2023-06-14T05:30:27;98377.94;;;18.96;37.96
21433;BME280;18592;49.708;10.900;2023-06-14T05:32:45;98376.59;;;19.07;37.46
21433;BME280;18592;49.708;10.900;2023-06-14T05:35:01;98379.63;;;19.19;37.32
21433;BME280;18592;49.708;10.900;2023-06-14T05:37:03;98378.25;;;19.30;37.04
21433;BME280;18592;49.708;10.900;2023-06-14T05:39:07;98382.94;;;19.43;36.71
21433;BME280;18592;49.708;10.900;2023-06-14T05:41:11;98387.13;;;19.54;36.84
21433;BME280;18592;49.708;10.900;2023-06-14T05:43:14;98387.06;;;19.68;37.14
21433;BME280;18592;49.708;10.900;2023-06-14T05:45:16;98390.38;;;19.79;36.95
21433;BME280;18592;49.708;10.900;2023-06-14T05:47:18;98385.09;;;19.91;37.00
21433;BME280;18592;49.708;10.900;2023-06-14T05:49:21;98392.50;;;20.04;37.22
21433;BME280;18592;49.708;10.900;2023-06-14T05:51:25;98397.94;;;20.17;37.21
21433;BME280;18592;49.708;10.900;2023-06-14T05:53:28;98392.38;;;20.31;37.05
21433;BME280;18592;49.708;10.900;2023-06-14T05:55:29;98397.50;;;20.46;36.82
21433;BME280;18592;49.708;10.900;2023-06-14T05:57:31;98396.53;;;20.59;36.56
21433;BME280;18592;49.708;10.900;2023-06-14T05:59:33;98398.91;;;20.74;36.44
21433;BME280;18592;49.708;10.900;2023-06-14T06:01:37;98395.69;;;20.89;36.67
21433;BME280;18592;49.708;10.900;2023-06-14T06:03:39;98393.25;;;21.05;36.42
21433;BME280;18592;49.708;10.900;2023-06-14T06:05:41;98385.31;;;21.21;36.32
21433;BME280;18592;49.708;10.900;2023-06-14T06:07:42;98389.56;;;21.35;36.65
21433;BME280;18592;49.708;10.900;2023-06-14T06:09:47;98389.91;;;21.51;36.25
21433;BME280;18592;49.708;10.900;2023-06-14T06:11:51;98394.31;;;21.69;36.34
21433;BME280;18592;49.708;10.900;2023-06-14T06:14:01;98394.16;;;21.83;36.60
21433;BME280;18592;49.708;10.900;2023-06-14T06:16:04;98384.19;;;21.99;36.39
21433;BME280;18592;49.708;10.900;2023-06-14T06:18:06;98394.75;;;22.14;36.47
21433;BME280;18592;49.708;10.900;2023-06-14T06:20:08;98393.44;;;22.29;36.13
21433;BME280;18592;49.708;10.900;2023-06-14T06:22:12;98390.78;;;22.41;36.03
21433;BME280;18592;49.708;10.900;2023-06-14T06:24:18;98394.34;;;22.50;35.51
21433;BME280;18592;49.708;10.900;2023-06-14T06:26:21;98404.94;;;22.56;35.60
21433;BME280;18592;49.708;10.900;2023-06-14T06:28:24;98397.25;;;22.62;34.91
21433;BME280;18592;49.708;10.900;2023-06-14T06:30:28;98401.31;;;22.64;35.10
21433;BME280;18592;49.708;10.900;2023-06-14T06:32:36;98395.94;;;22.68;34.97
21433;BME280;18592;49.708;10.900;2023-06-14T06:34:37;98403.13;;;22.69;34.99
21433;BME280;18592;49.708;10.900;2023-06-14T06:36:41;98401.97;;;22.70;34.74
21433;BME280;18592;49.708;10.900;2023-06-14T06:38:43;98396.09;;;22.71;34.58
21433;BME280;18592;49.708;10.900;2023-06-14T06:40:45;98398.03;;;22.71;34.74
21433;BME280;18592;49.708;10.900;2023-06-14T06:42:47;98400.00;;;22.70;34.67
21433;BME280;18592;49.708;10.900;2023-06-14T06:44:51;98400.81;;;22.71;34.47
21433;BME280;18592;49.708;10.900;2023-06-14T06:46:53;98410.78;;;22.72;34.57
21433;BME280;18592;49.708;10.900;2023-06-14T06:48:56;98409.63;;;22.73;34.43
21433;BME280;18592;49.708;10.900;2023-06-14T06:50:58;98416.00;;;22.73;34.63
21433;BME280;18592;49.708;10.900;2023-06-14T06:53:00;98405.72;;;22.74;34.71
21433;BME280;18592;49.708;10.900;2023-06-14T06:55:02;98411.28;;;22.74;34.60
21433;BME280;18592;49.708;10.900;2023-06-14T06:57:06;98411.75;;;22.76;34.50
21433;BME280;18592;49.708;10.900;2023-06-14T06:59:07;98413.88;;;22.79;34.49
21433;BME280;18592;49.708;10.900;2023-06-14T07:01:09;98414.47;;;22.85;34.50
21433;BME280;18592;49.708;10.900;2023-06-14T07:03:12;98424.75;;;22.93;34.51
21433;BME280;18592;49.708;10.900;2023-06-14T07:05:14;98421.44;;;22.99;34.72
21433;BME280;18592;49.708;10.900;2023-06-14T07:07:17;98421.06;;;23.09;34.87
21433;BME280;18592;49.708;10.900;2023-06-14T07:09:18;98424.59;;;23.18;34.75
21433;BME280;18592;49.708;10.900;2023-06-14T07:11:20;98427.00;;;23.28;34.88
21433;BME280;18592;49.708;10.900;2023-06-14T07:13:21;98421.06;;;23.38;34.71
21433;BME280;18592;49.708;10.900;2023-06-14T07:15:23;98415.09;;;23.49;34.74
21433;BME280;18592;49.708;10.900;2023-06-14T07:17:25;98420.25;;;23.59;34.70
21433;BME280;18592;49.708;10.900;2023-06-14T07:19:26;98419.03;;;23.68;34.69
21433;BME280;18592;49.708;10.900;2023-06-14T07:21:29;98412.72;;;23.80;34.66
21433;BME280;18592;49.708;10.900;2023-06-14T07:23:31;98409.97;;;23.92;34.86
21433;BME280;18592;49.708;10.900;2023-06-14T07:25:33;98410.03;;;24.04;34.61
21433;BME280;18592;49.708;10.900;2023-06-14T07:27:35;98410.91;;;24.17;34.83
21433;BME280;18592;49.708;10.900;2023-06-14T07:29:37;98420.59;;;24.31;34.62
21433;BME280;18592;49.708;10.900;2023-06-14T07:31:38;98413.06;;;24.44;34.63
21433;BME280;18592;49.708;10.900;2023-06-14T07:33:41;98414.72;;;24.57;34.49
21433;BME280;18592;49.708;10.900;2023-06-14T07:35:41;98416.72;;;24.69;34.45
21433;BME280;18592;49.708;10.900;2023-06-14T07:37:43;98420.69;;;24.80;34.33
21433;BME280;18592;49.708;10.900;2023-06-14T07:39:46;98421.19;;;24.94;34.43
21433;BME280;18592;49.708;10.900;2023-06-14T07:41:47;98415.25;;;25.07;34.50
21433;BME280;18592;49.708;10.900;2023-06-14T07:43:49;98424.41;;;25.20;34.39
21433;BME280;18592;49.708;10.900;2023-06-14T07:45:51;98418.50;;;25.34;34.38
21433;BME280;18592;49.708;10.900;2023-06-14T07:48:07;98428.16;;;25.48;34.07
21433;BME280;18592;49.708;10.900;2023-06-14T07:50:12;98427.41;;;25.63;33.96
21433;BME280;18592;49.708;10.900;2023-06-14T07:52:16;98423.41;;;25.76;33.96
21433;BME280;18592;49.708;10.900;2023-06-14T07:54:19;98423.84;;;25.91;34.18
21433;BME280;18592;49.708;10.900;2023-06-14T07:56:24;98414.22;;;26.04;33.64
21433;BME280;18592;49.708;10.900;2023-06-14T07:58:27;98422.25;;;26.17;33.65
21433;BME280;18592;49.708;10.900;2023-06-14T08:00:28;98419.38;;;26.29;33.60
21433;BME280;18592;49.708;10.900;2023-06-14T08:02:31;98416.50;;;26.41;33.73
21433;BME280;18592;49.708;10.900;2023-06-14T08:04:33;98415.28;;;26.55;33.44
21433;BME280;18592;49.708;10.900;2023-06-14T08:06:35;98421.59;;;26.67;33.70
21433;BME280;18592;49.708;10.900;2023-06-14T08:08:37;98421.19;;;26.81;33.11
21433;BME280;18592;49.708;10.900;2023-06-14T08:10:44;98421.09;;;26.93;32.83
21433;BME280;18592;49.708;10.900;2023-06-14T08:12:45;98426.16;;;27.03;32.67
21433;BME280;18592;49.708;10.900;2023-06-14T08:14:47;98423.63;;;27.14;33.01
21433;BME280;18592;49.708;10.900;2023-06-14T08:17:01;98426.31;;;27.26;32.53
21433;BME280;18592;49.708;10.900;2023-06-14T08:19:03;98423.38;;;27.38;32.74
21433;BME280;18592;49.708;10.900;2023-06-14T08:21:05;98425.28;;;27.49;32.99
21433;BME280;18592;49.708;10.900;2023-06-14T08:23:07;98425.53;;;27.60;32.50
21433;BME280;18592;49.708;10.900;2023-06-14T08:25:10;98434.63;;;27.73;32.69
21433;BME280;18592;49.708;10.900;2023-06-14T08:27:14;98426.91;;;27.85;32.76
21433;BME280;18592;49.708;10.900;2023-06-14T08:29:19;98419.16;;;27.98;32.74
21433;BME280;18592;49.708;10.900;2023-06-14T08:31:21;98428.25;;;28.10;32.79
21433;BME280;18592;49.708;10.900;2023-06-14T08:33:23;98431.72;;;28.23;32.68
21433;BME280;18592;49.708;10.900;2023-06-14T08:35:25;98428.75;;;28.35;32.53
21433;BME280;18592;49.708;10.900;2023-06-14T08:37:27;98439.78;;;28.47;32.24
21433;BME280;18592;49.708;10.900;2023-06-14T08:39:29;98430.03;;;28.60;32.15
21433;BME280;18592;49.708;10.900;2023-06-14T08:41:30;98423.00;;;28.70;31.81
21433;BME280;18592;49.708;10.900;2023-06-14T08:43:32;98415.59;;;28.81;31.84
21433;BME280;18592;49.708;10.900;2023-06-14T08:45:35;98424.56;;;28.90;31.88
21433;BME280;18592;49.708;10.900;2023-06-14T08:47:36;98425.56;;;29.01;31.80
21433;BME280;18592;49.708;10.900;2023-06-14T08:49:45;98428.16;;;29.13;31.42
21433;BME280;18592;49.708;10.900;2023-06-14T08:51:50;98437.16;;;29.22;31.34
21433;BME280;18592;49.708;10.900;2023-06-14T08:53:55;98431.28;;;29.31;31.06
21433;BME280;18592;49.708;10.900;2023-06-14T08:56:00;98428.59;;;29.38;30.76
21433;BME280;18592;49.708;10.900;2023-06-14T08:58:03;98429.06;;;29.43;30.75
21433;BME280;18592;49.708;10.900;2023-06-14T09:00:07;98427.56;;;29.49;30.68
21433;BME280;18592;49.708;10.900;2023-06-14T09:02:15;98424.88;;;29.56;30.49
21433;BME280;18592;49.708;10.900;2023-06-14T09:04:21;98427.38;;;29.65;30.65
21433;BME280;18592;49.708;10.900;2023-06-14T09:06:23;98425.94;;;29.75;30.54
21433;BME280;18592;49.708;10.900;2023-06-14T09:08:28;98424.88;;;29.83;30.22
21433;BME280;18592;49.708;10.900;2023-06-14T09:10:34;98426.56;;;29.91;30.01
21433;BME280;18592;49.708;10.900;2023-06-14T09:16:27;98420.38;;;30.08;30.09
21433;BME280;18592;49.708;10.900;2023-06-14T09:18:36;98423.69;;;30.17;29.50
21433;BME280;18592;49.708;10.900;2023-06-14T09:20:38;98413.34;;;30.25;29.35
21433;BME280;18592;49.708;10.900;2023-06-14T09:22:45;98436.72;;;30.32;29.22
21433;BME280;18592;49.708;10.900;2023-06-14T09:24:50;98425.63;;;30.43;29.29
21433;BME280;18592;49.708;10.900;2023-06-14T09:26:55;98430.56;;;30.53;29.09
21433;BME280;18592;49.708;10.900;2023-06-14T09:29:06;98427.06;;;30.63;28.98
21433;BME280;18592;49.708;10.900;2023-06-14T09:31:10;98429.97;;;30.73;29.29
21433;BME280;18592;49.708;10.900;2023-06-14T09:33:16;98425.22;;;30.81;29.56
21433;BME280;18592;49.708;10.900;2023-06-14T09:35:20;98423.31;;;30.92;29.49
21433;BME280;18592;49.708;10.900;2023-06-14T09:37:31;98439.50;;;31.02;29.37
21433;BME280;18592;49.708;10.900;2023-06-14T09:39:33;98435.19;;;31.12;29.10
21433;BME280;18592;49.708;10.900;2023-06-14T09:41:36;98420.34;;;31.18;28.39
21433;BME280;18592;49.708;10.900;2023-06-14T09:43:43;98430.44;;;31.23;28.45
21433;BME280;18592;49.708;10.900;2023-06-14T09:45:47;98428.06;;;31.28;28.34
21433;BME280;18592;49.708;10.900;2023-06-14T09:47:50;98427.28;;;31.35;28.78
21433;BME280;18592;49.708;10.900;2023-06-14T09:50:07;98433.84;;;31.46;28.51
21433;BME280;18592;49.708;10.900;2023-06-14T09:52:17;98424.25;;;31.54;27.72
21433;BME280;18592;49.708;10.900;2023-06-14T09:54:22;98433.16;;;31.60;27.23
21433;BME280;18592;49.708;10.900;2023-06-14T09:56:31;98433.56;;;31.62;27.02
21433;BME280;18592;49.708;10.900;2023-06-14T09:58:36;98428.31;;;31.60;26.86
21433;BME280;18592;49.708;10.900;2023-06-14T10:00:42;98425.84;;;31.55;26.17
21433;BME280;18592;49.708;10.900;2023-06-14T10:02:54;98416.53;;;31.48;25.66
21433;BME280;18592;49.708;10.900;2023-06-14T10:05:08;98428.97;;;31.39;25.98
21433;BME280;18592;49.708;10.900;2023-06-14T10:07:15;98422.47;;;31.32;26.73
21433;BME280;18592;49.708;10.900;2023-06-14T10:09:20;98427.25;;;31.24;26.15
21433;BME280;18592;49.708;10.900;2023-06-14T10:11:34;98420.75;;;31.17;26.57
21433;BME280;18592;49.708;10.900;2023-06-14T10:13:47;98423.09;;;31.11;27.02
21433;BME280;18592;49.708;10.900;2023-06-14T10:15:57;98430.34;;;31.12;26.71
21433;BME280;18592;49.708;10.900;2023-06-14T10:18:47;98428.75;;;31.15;26.81
21433;BME280;18592;49.708;10.900;2023-06-14T10:20:47;98429.56;;;31.15;25.87
21433;BME280;18592;49.708;10.900;2023-06-14T10:23:07;98431.56;;;31.15;25.79
21433;BME280;18592;49.708;10.900;2023-06-14T10:25:29;98430.34;;;31.12;26.03
21433;BME280;18592;49.708;10.900;2023-06-14T10:27:35;98431.50;;;31.08;25.49
21433;BME280;18592;49.708;10.900;2023-06-14T10:30:11;98439.88;;;30.97;24.82
21433;BME280;18592;49.708;10.900;2023-06-14T10:32:18;98441.44;;;30.91;25.57
21433;BME280;18592;49.708;10.900;2023-06-14T10:34:22;98439.31;;;30.85;25.13
21433;BME280;18592;49.708;10.900;2023-06-14T10:36:27;98428.41;;;30.76;25.60
21433;BME280;18592;49.708;10.900;2023-06-14T10:38:32;98435.56;;;30.70;25.14
21433;BME280;18592;49.708;10.900;2023-06-14T10:40:35;98432.69;;;30.63;25.31
21433;BME280;18592;49.708;10.900;2023-06-14T10:42:38;98432.22;;;30.57;25.54
21433;BME280;18592;49.708;10.900;2023-06-14T10:44:54;98437.00;;;30.53;25.55
21433;BME280;18592;49.708;10.900;2023-06-14T10:47:01;98431.38;;;30.53;26.09
21433;BME280;18592;49.708;10.900;2023-06-14T10:49:08;98433.03;;;30.58;26.45
21433;BME280;18592;49.708;10.900;2023-06-14T10:51:18;98429.88;;;30.66;26.63
21433;BME280;18592;49.708;10.900;2023-06-14T10:53:22;98431.63;;;30.78;26.48
21433;BME280;18592;49.708;10.900;2023-06-14T10:55:25;98430.09;;;30.88;26.81
21433;BME280;18592;49.708;10.900;2023-06-14T10:57:27;98432.66;;;31.00;26.29
21433;BME280;18592;49.708;10.900;2023-06-14T10:59:29;98426.28;;;31.10;26.07